createdAt,value
2018-09-03T00:02:04.905Z,102627.86
2018-09-03T00:04:33.428Z,102625.58
2018-09-03T00:07:01.901Z,102633.45
2018-09-03T00:09:35.840Z,102629.97
2018-09-03T00:12:04.643Z,102632.98
2018-09-03T00:14:33.073Z,102631.48
2018-09-03T00:17:01.697Z,102633.59
2018-09-03T00:19:30.137Z,102629.52
2018-09-03T00:21:58.937Z,102629.04
2018-09-03T00:24:27.390Z,102629.83
2018-09-03T00:26:56.137Z,102636.37
2018-09-03T00:29:24.634Z,102631.88
2018-09-03T00:31:58.566Z,102631.70
2018-09-03T00:34:32.206Z,102626.31
2018-09-03T00:37:06.081Z,102627.94
2018-09-03T00:39:39.905Z,102633.41
2018-09-03T00:42:13.762Z,102631.08
2018-09-03T00:44:47.620Z,102635.45
2018-09-03T00:47:16.513Z,102635.45
2018-09-03T00:49:45.011Z,102636.30
2018-09-03T00:52:13.572Z,102638.41
2018-09-03T00:54:42.145Z,102636.13
2018-09-03T00:57:10.596Z,102638.34
2018-09-03T00:59:39.033Z,102634.75
2018-09-03T01:02:07.638Z,102637.39
2018-09-03T01:04:36.072Z,102635.58
2018-09-03T01:07:04.564Z,102629.83
2018-09-03T01:09:33.609Z,102630.66
2018-09-03T01:12:02.043Z,102627.06
2018-09-03T01:14:30.561Z,102629.70
2018-09-03T01:16:59.353Z,102627.55
2018-09-03T01:19:28.317Z,102624.12
2018-09-03T01:21:56.777Z,102631.27
2018-09-03T01:24:25.325Z,102629.46
2018-09-03T01:26:53.797Z,102628.50
2018-09-03T01:29:22.248Z,102621.95
2018-09-03T01:31:55.017Z,102620.69
2018-09-03T01:34:24.629Z,102627.89
2018-09-03T01:36:53.408Z,102625.19
2018-09-03T01:39:21.988Z,102619.84
2018-09-03T01:41:50.541Z,102618.89
2018-09-03T01:44:19.081Z,102618.83
2018-09-03T01:46:48.121Z,102616.55
2018-09-03T01:49:16.629Z,102613.37
2018-09-03T01:51:45.238Z,102619.80
2018-09-03T01:54:13.832Z,102622.15
2018-09-03T01:56:42.261Z,102626.29
2018-09-03T01:59:10.788Z,102618.30
2018-09-03T02:01:39.225Z,102622.63
2018-09-03T02:04:07.750Z,102622.56
2018-09-03T02:06:36.517Z,102621.12
2018-09-03T02:09:09.129Z,102622.33
2018-09-03T02:11:37.925Z,102625.80
2018-09-03T02:14:06.642Z,102620.58
2018-09-03T02:16:36.194Z,102622.92
2018-09-03T02:19:05.085Z,102615.42
2018-09-03T02:21:33.535Z,102617.52
2018-09-03T02:24:02.100Z,102615.24
2018-09-03T02:26:30.839Z,102612.42
2018-09-03T02:28:59.398Z,102606.18
2018-09-03T02:31:27.968Z,102606.23
2018-09-03T02:33:56.570Z,102609.90
2018-09-03T02:36:25.028Z,102608.46
2018-09-03T02:38:53.477Z,102606.12
2018-09-03T02:41:21.997Z,102606.12
2018-09-03T02:43:50.577Z,102608.28
2018-09-03T02:46:19.144Z,102603.66
2018-09-03T02:48:48.644Z,102610.84
2018-09-03T02:51:17.099Z,102598.20
2018-09-03T02:53:45.608Z,102596.28
2018-09-03T02:56:14.113Z,102607.80
2018-09-03T02:58:42.541Z,102598.92
2018-09-03T03:01:11.102Z,102601.08
2018-09-03T03:03:39.701Z,102603.46
2018-09-03T03:06:08.140Z,102605.91
2018-09-03T03:08:36.739Z,102602.80
2018-09-03T03:11:05.545Z,102608.36
2018-09-03T03:13:34.001Z,102605.72
2018-09-03T03:16:02.617Z,102598.83
2018-09-03T03:18:31.109Z,102598.00
2018-09-03T03:20:59.565Z,102593.31
2018-09-03T03:23:28.462Z,102597.07
2018-09-03T03:25:56.980Z,102591.12
2018-09-03T03:28:25.408Z,102589.87
2018-09-03T03:30:53.896Z,102591.06
2018-09-03T03:33:22.870Z,102593.57
2018-09-03T03:35:51.377Z,102584.62
2018-09-03T03:38:19.849Z,102591.22
2018-09-03T03:40:48.386Z,102587.07
2018-09-03T03:43:16.929Z,102589.48
2018-09-03T03:45:45.553Z,102585.11
2018-09-03T03:48:14.078Z,102587.81
2018-09-03T03:50:42.701Z,102587.52
2018-09-03T03:53:11.181Z,102586.20
2018-09-03T03:55:39.630Z,102580.25
2018-09-03T03:58:08.064Z,102576.16
2018-09-03T04:00:36.523Z,102580.73
2018-09-03T04:03:05.039Z,102580.80
2018-09-03T04:05:33.477Z,102582.41
2018-09-03T04:08:02.264Z,102579.52
2018-09-03T04:10:30.999Z,102582.79
2018-09-03T04:13:03.605Z,102582.79
2018-09-03T04:15:32.130Z,102577.94
2018-09-03T04:18:00.782Z,102576.07
2018-09-03T04:20:29.317Z,102580.16
2018-09-03T04:22:58.127Z,102581.25
2018-09-03T04:25:26.928Z,102579.03
2018-09-03T04:27:56.159Z,102575.20
2018-09-03T04:30:24.757Z,102577.61
2018-09-03T04:32:53.909Z,102579.67
2018-09-03T04:35:22.382Z,102581.12
2018-09-03T04:37:51.146Z,102577.09
2018-09-03T04:40:19.674Z,102582.73
2018-09-03T04:42:48.128Z,102578.77
2018-09-03T04:45:16.636Z,102575.84
2018-09-03T04:47:45.480Z,102571.66
2018-09-03T04:50:13.962Z,102573.94
2018-09-03T04:52:42.707Z,102571.72
2018-09-03T04:55:11.184Z,102567.89
2018-09-03T04:57:39.932Z,102564.05
2018-09-03T05:00:08.402Z,102563.46
2018-09-03T05:02:36.841Z,102569.05
2018-09-03T05:05:05.494Z,102569.39
2018-09-03T05:07:34.161Z,102562.31
2018-09-03T05:10:02.604Z,102558.11
2018-09-03T05:12:31.113Z,102561.77
2018-09-03T05:14:59.889Z,102558.48
2018-09-03T05:17:28.328Z,102561.30
2018-09-03T05:19:56.809Z,102566.76
2018-09-03T05:22:25.656Z,102559.49
2018-09-03T05:24:54.085Z,102558.77
2018-09-03T05:27:22.543Z,102555.46
2018-09-03T05:29:51.414Z,102554.68
2018-09-03T05:32:19.869Z,102565.17
2018-09-03T05:34:48.433Z,102564.02
2018-09-03T05:37:16.971Z,102564.31
2018-09-03T05:39:45.410Z,102565.44
2018-09-03T05:42:13.864Z,102564.81
2018-09-03T05:44:42.313Z,102574.41
2018-09-03T05:47:10.757Z,102568.44
2018-09-03T05:49:39.727Z,102568.66
2018-09-03T05:52:08.427Z,102565.81
2018-09-03T05:54:36.957Z,102568.78
2018-09-03T05:57:05.572Z,102573.02
2018-09-03T05:59:34.186Z,102564.40
2018-09-03T06:02:02.726Z,102566.46
2018-09-03T06:04:31.729Z,102566.72
2018-09-03T06:07:00.502Z,102561.74
2018-09-03T06:09:29.090Z,102563.00
2018-09-03T06:11:57.629Z,102566.05
2018-09-03T06:14:27.525Z,102565.50
2018-09-03T06:16:56.011Z,102562.34
2018-09-03T06:19:24.516Z,102557.76
2018-09-03T06:21:53.287Z,102564.77
2018-09-03T06:24:21.767Z,102564.17
2018-09-03T06:26:50.229Z,102571.17
2018-09-03T06:29:19.025Z,102569.22
2018-09-03T06:31:53.905Z,102566.80
2018-09-03T06:34:22.734Z,102560.91
2018-09-03T06:36:51.703Z,102566.05
2018-09-03T06:39:20.353Z,102557.97
2018-09-03T06:41:49.198Z,102558.70
2018-09-03T06:44:17.807Z,102557.66
2018-09-03T06:46:46.269Z,102565.09
2018-09-03T06:49:15.154Z,102554.41
2018-09-03T06:51:43.745Z,102557.45
2018-09-03T06:54:12.257Z,102559.59
2018-09-03T06:56:41.310Z,102555.09
2018-09-03T06:59:09.752Z,102557.03
2018-09-03T07:01:38.915Z,102552.92
2018-09-03T07:04:07.477Z,102555.30
2018-09-03T07:06:35.970Z,102556.18
2018-09-03T07:09:06.694Z,102543.79
2018-09-03T07:11:35.473Z,102540.05
2018-09-03T07:14:03.958Z,102541.39
2018-09-03T07:16:32.469Z,102543.88
2018-09-03T07:19:01.277Z,102536.80
2018-09-03T07:21:29.726Z,102535.88
2018-09-03T07:23:58.229Z,102527.25
2018-09-03T07:26:26.758Z,102524.42
2018-09-03T07:28:55.299Z,102501.14
2018-09-03T07:31:23.716Z,102523.30
2018-09-03T07:33:52.236Z,102523.17
2018-09-03T07:36:21.366Z,102518.47
2018-09-03T07:38:49.846Z,102520.38
2018-09-03T07:41:18.872Z,102515.13
2018-09-03T07:43:47.294Z,102495.56
2018-09-03T07:46:16.296Z,102524.64
2018-09-03T07:48:45.150Z,102523.64
2018-09-03T07:51:13.633Z,102517.59
2018-09-03T07:53:42.846Z,102513.56
2018-09-03T07:56:11.366Z,102516.81
2018-09-03T07:58:40.212Z,102515.05
2018-09-03T08:01:08.698Z,102515.42
2018-09-03T08:03:37.660Z,102515.59
2018-09-03T08:06:06.397Z,102512.06
2018-09-03T08:08:34.959Z,102507.11
2018-09-03T08:11:03.623Z,102507.20
2018-09-03T08:13:37.193Z,102507.32
2018-09-03T08:16:06.217Z,102504.63
2018-09-03T08:18:34.649Z,102501.94
2018-09-03T08:21:03.425Z,102497.47
2018-09-03T08:23:32.366Z,102494.29
2018-09-03T08:26:00.813Z,102492.19
2018-09-03T08:28:29.309Z,102488.77
2018-09-03T08:30:58.120Z,102488.73
2018-09-03T08:33:26.554Z,102483.48
2018-09-03T08:35:55.100Z,102479.46
2018-09-03T08:38:23.850Z,102485.99
2018-09-03T08:40:52.992Z,102482.62
2018-09-03T08:43:21.643Z,102475.15
2018-09-03T08:45:50.177Z,102253.04
2018-09-03T08:48:18.606Z,102472.73
2018-09-03T08:50:47.215Z,102474.08
2018-09-03T08:53:15.989Z,102468.98
2018-09-03T08:55:45.066Z,102477.61
2018-09-03T08:58:13.534Z,102474.27
2018-09-03T09:00:42.511Z,102477.05
2018-09-03T09:03:17.674Z,102476.53
2018-09-03T09:05:46.365Z,102477.48
2018-09-03T09:08:15.013Z,102476.59
2018-09-03T09:10:43.486Z,102470.36
2018-09-03T09:13:12.202Z,102464.05
2018-09-03T09:15:40.865Z,102462.50
2018-09-03T09:18:09.325Z,102459.56
2018-09-03T09:20:37.787Z,102456.56
2018-09-03T09:23:06.225Z,102445.85
2018-09-03T09:25:34.754Z,102446.64
2018-09-03T09:28:03.616Z,102448.62
2018-09-03T09:30:32.041Z,102436.11
2018-09-03T09:33:00.702Z,102439.87
2018-09-03T09:35:29.205Z,102435.34
2018-09-03T09:37:57.663Z,102430.66
2018-09-03T09:40:26.234Z,102431.45
2018-09-03T09:42:55.097Z,102428.84
2018-09-03T09:45:23.535Z,102425.90
2018-09-03T09:47:52.106Z,102423.36
2018-09-03T09:50:20.884Z,102424.42
2018-09-03T09:52:49.662Z,102418.23
2018-09-03T09:55:18.302Z,102417.56
2018-09-03T09:57:47.537Z,102416.14
2018-09-03T10:00:21.469Z,102410.31
2018-09-03T10:02:50.051Z,102406.98
2018-09-03T10:05:18.527Z,102409.81
2018-09-03T10:07:47.469Z,102407.54
2018-09-03T10:10:16.453Z,102401.72
2018-09-03T10:12:44.934Z,102401.74
2018-09-03T10:15:13.801Z,102401.64
2018-09-03T10:17:42.554Z,102391.23
2018-09-03T10:20:10.978Z,102392.31
2018-09-03T10:22:39.561Z,102394.38
2018-09-03T10:25:08.088Z,102387.87
2018-09-03T10:27:36.549Z,102392.54
2018-09-03T10:30:05.175Z,102387.80
2018-09-03T10:32:33.830Z,102388.35
2018-09-03T10:35:02.270Z,102383.80
2018-09-03T10:37:30.867Z,102389.98
2018-09-03T10:40:01.068Z,102384.27
2018-09-03T10:42:30.429Z,102381.88
2018-09-03T10:44:58.877Z,102378.22
2018-09-03T10:47:27.733Z,102371.36
2018-09-03T10:49:56.165Z,102369.24
2018-09-03T10:52:24.757Z,102369.24
2018-09-03T10:54:53.325Z,102365.45
2018-09-03T10:57:22.656Z,102369.35
2018-09-03T10:59:51.251Z,102361.78
2018-09-03T11:02:20.162Z,102358.29
2018-09-03T11:04:50.001Z,102356.61
2018-09-03T11:07:18.466Z,102348.59
2018-09-03T11:09:47.195Z,102350.19
2018-09-03T11:12:16.061Z,102349.46
2018-09-03T11:14:44.523Z,102342.20
2018-09-03T11:17:13.174Z,102338.20
2018-09-03T11:19:45.895Z,102337.90
2018-09-03T11:22:15.136Z,102336.19
2018-09-03T11:24:43.595Z,102334.27
2018-09-03T11:27:12.067Z,102342.69
2018-09-03T11:29:40.574Z,102334.55
2018-09-03T11:32:15.505Z,102328.57
2018-09-03T11:34:44.104Z,102329.38
2018-09-03T11:37:12.645Z,102324.55
2018-09-03T11:39:41.416Z,102325.32
2018-09-03T11:42:10.145Z,102323.95
2018-09-03T11:44:38.614Z,102312.30
2018-09-03T11:47:07.196Z,102311.66
2018-09-03T11:49:35.718Z,102311.33
2018-09-03T11:52:04.183Z,102309.37
2018-09-03T11:54:32.764Z,102304.45
2018-09-03T11:57:01.425Z,102306.92
2018-09-03T11:59:29.845Z,102291.23
2018-09-03T12:01:58.613Z,102304.42
2018-09-03T12:04:27.100Z,102304.01
2018-09-03T12:06:55.553Z,102300.05
2018-09-03T12:09:24.165Z,102299.39
2018-09-03T12:11:52.679Z,102297.62
2018-09-03T12:14:26.760Z,102296.84
2018-09-03T12:16:56.044Z,102297.89
2018-09-03T12:19:24.989Z,102292.70
2018-09-03T12:21:53.533Z,102284.83
2018-09-03T12:24:22.075Z,102283.21
2018-09-03T12:26:50.570Z,102282.64
2018-09-03T12:29:19.137Z,102280.52
2018-09-03T12:31:47.736Z,102270.92
2018-09-03T12:34:16.201Z,102266.22
2018-09-03T12:36:44.661Z,102263.45
2018-09-03T12:39:13.293Z,102264.10
2018-09-03T12:41:41.746Z,102258.16
2018-09-03T12:44:10.807Z,102258.41
2018-09-03T12:46:39.439Z,102253.28
2018-09-03T12:49:07.886Z,102251.14
2018-09-03T12:51:36.453Z,102256.33
2018-09-03T12:54:08.082Z,102244.59
2018-09-03T12:56:36.633Z,102248.36
2018-09-03T12:59:05.125Z,102246.70
2018-09-03T13:01:33.698Z,102239.28
2018-09-03T13:04:02.513Z,102119.97
2018-09-03T13:06:30.951Z,102235.14
2018-09-03T13:08:59.419Z,102236.03
2018-09-03T13:11:28.157Z,102230.16
2018-09-03T13:13:56.624Z,102229.71
2018-09-03T13:16:25.990Z,102227.90
2018-09-03T13:18:54.897Z,102225.83
2018-09-03T13:21:23.318Z,102228.12
2018-09-03T13:23:51.759Z,102231.73
2018-09-03T13:26:20.353Z,102218.56
2018-09-03T13:28:48.802Z,102222.81
2018-09-03T13:31:17.251Z,102219.47
2018-09-03T13:33:52.662Z,102216.54
2018-09-03T13:36:27.454Z,102210.45
2018-09-03T13:38:55.938Z,102212.36
2018-09-03T13:41:24.428Z,102212.47
2018-09-03T13:43:52.894Z,102204.49
2018-09-03T13:46:21.365Z,102205.51
2018-09-03T13:48:49.780Z,102201.55
2018-09-03T13:51:18.518Z,102204.84
2018-09-03T13:53:47.265Z,102196.56
2018-09-03T13:56:15.711Z,102201.48
2018-09-03T13:58:44.153Z,102196.92
2018-09-03T14:01:12.762Z,102197.81
2018-09-03T14:03:41.582Z,102190.13
2018-09-03T14:06:10.210Z,102188.72
2018-09-03T14:08:39.021Z,102190.88
2018-09-03T14:11:07.469Z,102181.16
2018-09-03T14:13:35.921Z,102178.11
2018-09-03T14:16:04.420Z,102177.59
2018-09-03T14:18:32.988Z,102163.70
2018-09-03T14:21:01.467Z,102165.43
2018-09-03T14:23:29.986Z,102161.81
2018-09-03T14:25:58.422Z,102158.98
2018-09-03T14:28:26.892Z,102156.17
2018-09-03T14:30:55.583Z,102136.30
2018-09-03T14:33:24.697Z,102160.09
2018-09-03T14:35:53.137Z,102155.75
2018-09-03T14:38:21.613Z,102151.30
2018-09-03T14:40:50.065Z,102151.91
2018-09-03T14:43:18.495Z,102148.53
2018-09-03T14:45:46.963Z,102151.02
2018-09-03T14:48:15.426Z,102156.87
2018-09-03T14:50:43.865Z,102149.59
2018-09-03T14:53:19.015Z,102155.16
2018-09-03T14:55:47.682Z,102148.70
2018-09-03T14:58:16.106Z,102150.67
2018-09-03T15:00:44.565Z,102148.17
2018-09-03T15:03:13.000Z,102147.56
2018-09-03T15:05:41.517Z,102141.72
2018-09-03T15:08:10.276Z,102137.31
2018-09-03T15:10:38.853Z,102139.12
2018-09-03T15:13:07.304Z,102134.09
2018-09-03T15:15:35.778Z,102134.79
2018-09-03T15:18:04.205Z,102137.22
2018-09-03T15:20:33.161Z,102135.09
2018-09-03T15:23:01.642Z,102129.28
2018-09-03T15:25:30.073Z,102127.97
2018-09-03T15:27:59.679Z,102129.34
2018-09-03T15:30:28.129Z,102125.28
2018-09-03T15:32:56.714Z,102126.61
2018-09-03T15:35:26.164Z,102100.69
2018-09-03T15:37:55.548Z,102119.64
2018-09-03T15:40:24.200Z,102118.13
2018-09-03T15:42:52.648Z,102120.72
2018-09-03T15:45:21.129Z,102123.47
2018-09-03T15:47:49.603Z,102125.09
2018-09-03T15:50:18.057Z,102120.41
2018-09-03T15:52:46.545Z,102122.63
2018-09-03T15:55:15.030Z,102113.45
2018-09-03T15:57:43.496Z,102118.75
2018-09-03T16:00:12.091Z,102121.05
2018-09-03T16:02:40.867Z,102121.01
2018-09-03T16:05:09.353Z,102111.42
2018-09-03T16:07:37.840Z,102119.00
2018-09-03T16:10:06.449Z,102115.22
2018-09-03T16:12:34.910Z,102114.81
2018-09-03T16:15:03.534Z,102111.03
2018-09-03T16:17:32.005Z,102118.67
2018-09-03T16:20:00.483Z,102111.89
2018-09-03T16:22:29.367Z,102113.89
2018-09-03T16:25:04.053Z,102107.23
2018-09-03T16:27:32.623Z,102110.88
2018-09-03T16:30:01.225Z,102112.61
2018-09-03T16:32:29.699Z,102102.22
2018-09-03T16:34:58.198Z,102099.70
2018-09-03T16:37:26.666Z,102109.50
2018-09-03T16:39:55.177Z,102102.96
2018-09-03T16:42:23.848Z,102112.05
2018-09-03T16:44:52.296Z,102105.24
2018-09-03T16:47:20.770Z,102106.74
2018-09-03T16:49:49.282Z,102108.50
2018-09-03T16:52:17.758Z,102105.22
2018-09-03T16:54:46.228Z,102104.10
2018-09-03T16:57:14.720Z,102105.13
2018-09-03T16:59:43.177Z,102108.31
2018-09-03T17:02:11.658Z,102106.67
2018-09-03T17:04:40.255Z,102109.89
2018-09-03T17:07:08.817Z,102111.28
2018-09-03T17:09:37.667Z,102111.28
2018-09-03T17:12:06.681Z,102118.44
2018-09-03T17:14:35.182Z,102111.75
2018-09-03T17:17:03.617Z,102120.20
2018-09-03T17:19:32.114Z,102108.13
2018-09-03T17:22:00.650Z,102115.23
2018-09-03T17:24:29.577Z,102116.09
2018-09-03T17:27:02.254Z,102116.06
2018-09-03T17:29:30.824Z,102112.03
2018-09-03T17:31:59.337Z,102121.80
2018-09-03T17:34:28.672Z,102114.19
2018-09-03T17:36:57.107Z,102120.82
2018-09-03T17:39:25.574Z,102110.95
2018-09-03T17:41:54.157Z,102116.70
2018-09-03T17:44:22.615Z,102114.87
2018-09-03T17:46:51.167Z,102115.28
2018-09-03T17:49:19.669Z,102122.36
2018-09-03T17:51:48.218Z,102125.45
2018-09-03T17:54:16.676Z,102125.41
2018-09-03T17:56:45.179Z,102124.46
2018-09-03T17:59:13.656Z,102118.64
2018-09-03T18:01:42.118Z,102115.05
2018-09-03T18:04:11.032Z,102113.20
2018-09-03T18:06:39.609Z,102114.45
2018-09-03T18:09:08.257Z,102115.73
2018-09-03T18:11:36.753Z,102109.02
2018-09-03T18:14:05.354Z,102115.63
2018-09-03T18:16:33.998Z,102113.37
2018-09-03T18:19:02.574Z,102123.09
2018-09-03T18:21:31.014Z,102116.83
2018-09-03T18:23:59.458Z,102115.88
2018-09-03T18:26:28.043Z,102118.47
2018-09-03T18:28:56.722Z,102119.34
2018-09-03T18:31:25.164Z,102107.75
2018-09-03T18:33:53.634Z,102113.46
2018-09-03T18:36:22.121Z,102113.39
2018-09-03T18:38:56.977Z,102118.63
2018-09-03T18:41:25.495Z,102113.22
2018-09-03T18:43:54.353Z,102111.31
2018-09-03T18:46:22.837Z,102116.55
2018-09-03T18:48:51.791Z,102112.52
2018-09-03T18:51:20.314Z,102114.23
2018-09-03T18:53:48.857Z,102114.61
2018-09-03T18:56:17.330Z,102115.90
2018-09-03T18:58:45.770Z,102120.30
2018-09-03T19:01:14.385Z,102118.05
2018-09-03T19:03:42.837Z,102120.66
2018-09-03T19:06:11.404Z,102124.19
2018-09-03T19:08:39.869Z,102123.26
2018-09-03T19:11:08.433Z,102115.66
2018-09-03T19:13:36.882Z,102114.28
2018-09-03T19:16:05.625Z,102114.66
2018-09-03T19:18:34.115Z,102109.28
2018-09-03T19:21:02.542Z,102111.02
2018-09-03T19:23:31.202Z,102116.30
2018-09-03T19:25:59.686Z,102110.95
2018-09-03T19:28:28.840Z,102109.17
2018-09-03T19:30:57.386Z,102108.25
2018-09-03T19:33:26.396Z,102102.45
2018-09-03T19:35:54.965Z,102112.58
2018-09-03T19:38:23.565Z,102103.22
2018-09-03T19:40:52.029Z,102108.03
2018-09-03T19:43:20.486Z,102105.28
2018-09-03T19:45:48.970Z,102107.80
2018-09-03T19:48:17.409Z,102099.33
2018-09-03T19:50:45.886Z,102100.15
2018-09-03T19:53:14.368Z,102099.21
2018-09-03T19:55:42.949Z,102101.84
2018-09-03T19:58:11.409Z,102096.43
2018-09-03T20:00:39.888Z,102102.10
2018-09-03T20:03:08.339Z,102099.80
2018-09-03T20:05:36.855Z,102099.80
2018-09-03T20:08:05.430Z,102097.56
2018-09-03T20:10:33.931Z,102094.41
2018-09-03T20:13:09.096Z,102101.39
2018-09-03T20:15:37.906Z,102093.30
2018-09-03T20:18:06.587Z,102094.98
2018-09-03T20:20:35.194Z,102093.56
2018-09-03T20:23:03.687Z,102094.00
2018-09-03T20:25:32.164Z,102089.10
2018-09-03T20:28:00.676Z,102092.10
2018-09-03T20:30:29.277Z,102087.61
2018-09-03T20:32:58.400Z,102088.45
2018-09-03T20:35:26.886Z,102084.88
2018-09-03T20:37:55.356Z,102080.86
2018-09-03T20:40:23.859Z,102082.91
2018-09-03T20:42:52.826Z,102077.43
2018-09-03T20:45:21.355Z,102080.02
2018-09-03T20:47:49.877Z,102078.70
2018-09-03T20:50:18.517Z,102076.85
2018-09-03T20:52:46.962Z,102079.73
2018-09-03T20:55:15.470Z,102081.73
2018-09-03T20:57:43.954Z,102081.67
2018-09-03T21:00:12.431Z,102084.75
2018-09-03T21:02:41.114Z,102083.89
2018-09-03T21:05:09.951Z,102085.55
2018-09-03T21:07:38.447Z,102089.34
2018-09-03T21:10:07.253Z,102085.20
2018-09-03T21:12:36.050Z,102083.91
2018-09-03T21:15:04.543Z,102084.77
2018-09-03T21:17:33.117Z,102081.63
2018-09-03T21:20:01.785Z,102082.98
2018-09-03T21:22:30.250Z,102077.98
2018-09-03T21:24:59.720Z,102073.02
2018-09-03T21:27:28.463Z,102047.08
2018-09-03T21:29:57.009Z,102075.99
2018-09-03T21:32:25.549Z,102075.99
2018-09-03T21:34:54.133Z,102065.83
2018-09-03T21:37:22.569Z,102067.05
2018-09-03T21:39:51.044Z,102068.24
2018-09-03T21:42:19.509Z,102062.31
2018-09-03T21:44:48.003Z,102065.14
2018-09-03T21:47:16.513Z,102058.31
2018-09-03T21:49:44.989Z,102060.42
2018-09-03T21:52:13.478Z,102053.95
2018-09-03T21:54:42.202Z,102054.02
2018-09-03T21:57:10.845Z,102059.17
2018-09-03T21:59:39.421Z,102058.03
2018-09-03T22:02:09.634Z,102057.42
2018-09-03T22:04:39.722Z,102053.98
2018-09-03T22:07:08.621Z,102050.13
2018-09-03T22:09:37.061Z,102054.05
2018-09-03T22:12:06.056Z,102053.48
2018-09-03T22:14:34.513Z,102057.48
2018-09-03T22:17:02.985Z,102061.85
2018-09-03T22:19:31.787Z,102051.08
2018-09-03T22:22:01.274Z,102053.23
2018-09-03T22:24:29.812Z,102050.15
2018-09-03T22:26:58.391Z,102048.79
2018-09-03T22:29:26.853Z,102051.83
2018-09-03T22:31:55.417Z,102053.00
2018-09-03T22:34:24.793Z,102051.88
2018-09-03T22:36:53.289Z,102053.40
2018-09-03T22:39:21.788Z,102052.78
2018-09-03T22:41:50.381Z,102051.77
2018-09-03T22:44:18.853Z,102048.58
2018-09-03T22:46:47.276Z,102050.36
2018-09-03T22:49:15.733Z,102047.72
2018-09-03T22:51:44.355Z,102041.45
2018-09-03T22:54:12.824Z,102039.78
2018-09-03T22:56:41.287Z,102041.22
2018-09-03T22:59:09.741Z,102036.32
2018-09-03T23:01:38.182Z,102034.88
2018-09-03T23:04:06.645Z,102034.41
2018-09-03T23:06:35.070Z,102027.30
2018-09-03T23:09:04.281Z,102029.82
2018-09-03T23:11:32.781Z,102023.86
2018-09-03T23:14:01.210Z,102023.70
2018-09-03T23:16:29.649Z,102027.55
2018-09-03T23:18:58.127Z,102027.08
2018-09-03T23:21:26.785Z,102025.20
2018-09-03T23:23:55.621Z,102021.70
2018-09-03T23:26:24.123Z,102026.22
2018-09-03T23:28:52.568Z,102022.38
2018-09-03T23:31:21.046Z,102025.92
2018-09-03T23:33:49.572Z,102023.11
2018-09-03T23:36:18.010Z,102019.80
2018-09-03T23:38:46.441Z,102016.01
2018-09-03T23:41:15.018Z,102012.26
2018-09-03T23:43:43.553Z,102002.84
2018-09-03T23:46:11.985Z,102010.68
2018-09-03T23:48:40.582Z,102013.32
2018-09-03T23:51:09.060Z,102009.70
2018-09-03T23:53:37.502Z,102013.53
2018-09-03T23:56:05.974Z,102005.91
2018-09-03T23:58:34.425Z,102005.39
